Time,TemperatureF,DewpointF,PressureIn,WindDirection,WindDirectionDegrees,WindSpeedMPH,WindSpeedGustMPH,Humidity,HourlyPrecipIn,Conditions,Clouds,dailyrainin,SoftwareType,DateUTC
2013-05-16 00:05:00,71.0,-99.9,30.16,SW,235,2.0,4.0,-999,-99.99,,,-99.99,,2013-05-16 10:05:00,
2013-05-16 00:15:00,71.0,-99.9,30.16,WSW,237,2.0,3.0,-999,-99.99,,,-99.99,,2013-05-16 10:15:00,
2013-05-16 00:24:00,71.0,-99.9,30.16,SW,219,3.0,3.0,-999,-99.99,,,-99.99,,2013-05-16 10:24:00,
2013-05-16 00:36:00,71.0,-99.9,30.15,SW,216,2.0,5.0,-999,-99.99,,,-99.99,,2013-05-16 10:36:00,
2013-05-16 00:45:00,71.0,-99.9,30.15,South,189,2.0,3.0,-999,-99.99,,,-99.99,,2013-05-16 10:45:00,
2013-05-16 00:57:00,71.0,-99.9,30.15,SSE,167,2.0,4.0,-999,-99.99,,,-99.99,,2013-05-16 10:57:00,
2013-05-16 01:05:00,70.0,-99.9,30.15,WSW,240,2.0,5.0,-999,-99.99,,,-99.99,,2013-05-16 11:05:00,
2013-05-16 01:15:00,70.0,-99.9,30.14,WSW,251,4.0,5.0,-999,-99.99,,,-99.99,,2013-05-16 11:15:00,
2013-05-16 01:25:00,71.0,-99.9,30.14,SSW,195,3.0,4.0,-999,-99.99,,,-99.99,,2013-05-16 11:25:00,
2013-05-16 01:35:00,70.0,-99.9,30.14,SW,236,4.0,4.0,-999,-99.99,,,-99.99,,2013-05-16 11:35:00,
2013-05-16 01:46:00,70.0,-99.9,30.14,SSW,192,2.0,4.0,-999,-99.99,,,-99.99,,2013-05-16 11:46:00,
2013-05-16 01:57:00,70.0,-99.9,30.13,SW,215,3.0,4.0,-999,-99.99,,,-99.99,,2013-05-16 11:57:00,
2013-05-16 02:06:00,70.0,-99.9,30.13,SW,228,4.0,5.0,-999,-99.99,,,-99.99,,2013-05-16 12:06:00,
2013-05-16 02:13:00,70.0,-99.9,30.13,WSW,238,2.0,3.0,-999,-99.99,,,-99.99,,2013-05-16 12:13:00,
2013-05-16 02:23:00,70.0,-99.9,30.12,SSW,203,2.0,4.0,-999,-99.99,,,-99.99,,2013-05-16 12:23:00,
2013-05-16 02:35:00,70.0,-99.9,30.12,SSW,206,3.0,5.0,-999,-99.99,,,-99.99,,2013-05-16 12:35:00,
2013-05-16 02:45:00,70.0,-99.9,30.12,SSW,201,2.0,4.0,-999,-99.99,,,-99.99,,2013-05-16 12:45:00,
2013-05-16 02:53:00,70.0,-99.9,30.11,SW,234,6.0,6.0,-999,-99.99,,,-99.99,,2013-05-16 12:53:00,
2013-05-16 03:04:00,70.0,-99.9,30.11,NW,309,0.0,6.0,-999,-99.99,,,-99.99,,2013-05-16 13:04:00,
2013-05-16 03:12:00,70.0,-99.9,30.11,West,271,3.0,5.0,-999,-99.99,,,-99.99,,2013-05-16 13:12:00,
2013-05-16 03:27:00,70.0,-99.9,30.11,SSE,168,3.0,4.0,-999,-99.99,,,-99.99,,2013-05-16 13:27:00,
2013-05-16 03:35:00,70.0,-99.9,30.11,SSE,168,3.0,4.0,-999,-99.99,,,-99.99,,2013-05-16 13:35:00,
2013-05-16 03:44:00,70.0,-99.9,30.11,SSW,194,3.0,4.0,-999,-99.99,,,-99.99,,2013-05-16 13:44:00,
2013-05-16 03:55:00,70.0,-99.9,30.11,South,187,3.0,4.0,-999,-99.99,,,-99.99,,2013-05-16 13:55:00,
2013-05-16 04:05:00,70.0,-99.9,30.11,SW,218,4.0,5.0,-999,-99.99,,,-99.99,,2013-05-16 14:05:00,
2013-05-16 04:16:00,70.0,-99.9,30.10,SW,231,3.0,4.0,-999,-99.99,,,-99.99,,2013-05-16 14:16:00,
2013-05-16 04:23:00,70.0,-99.9,30.10,SW,223,4.0,6.0,-999,-99.99,,,-99.99,,2013-05-16 14:23:00,
2013-05-16 04:37:00,70.0,-99.9,30.10,SW,228,4.0,5.0,-999,-99.99,,,-99.99,,2013-05-16 14:37:00,
2013-05-16 04:47:00,70.0,-99.9,30.10,SSW,209,3.0,5.0,-999,-99.99,,,-99.99,,2013-05-16 14:47:00,
2013-05-16 04:56:00,70.0,-99.9,30.10,SW,218,3.0,4.0,-999,-99.99,,,-99.99,,2013-05-16 14:56:00,
2013-05-16 05:08:00,70.0,-99.9,30.10,SW,226,4.0,6.0,-999,-99.99,,,-99.99,,2013-05-16 15:08:00,
2013-05-16 05:17:00,70.0,-99.9,30.10,SW,225,3.0,5.0,-999,-99.99,,,-99.99,,2013-05-16 15:17:00,
2013-05-16 05:28:00,70.0,-99.9,30.11,SW,224,5.0,6.0,-999,-99.99,,,-99.99,,2013-05-16 15:28:00,
2013-05-16 05:41:00,70.0,-99.9,30.11,SW,227,5.0,6.0,-999,-99.99,,,-99.99,,2013-05-16 15:41:00,
2013-05-16 05:50:00,70.0,-99.9,30.11,SW,224,5.0,6.0,-999,-99.99,,,-99.99,,2013-05-16 15:50:00,
2013-05-16 06:01:00,70.0,-99.9,30.11,SSW,213,4.0,6.0,-999,-99.99,,,-99.99,,2013-05-16 16:01:00,
2013-05-16 06:09:00,71.0,-99.9,30.11,SW,235,8.0,11.0,-999,-99.99,,,-99.99,,2013-05-16 16:09:00,
2013-05-16 06:20:00,71.0,-99.9,30.11,WSW,237,7.0,9.0,-999,-99.99,,,-99.99,,2013-05-16 16:20:00,
2013-05-16 06:31:00,70.0,-99.9,30.12,SSE,162,1.0,4.0,-999,-99.99,,,-99.99,,2013-05-16 16:31:00,
2013-05-16 06:40:00,69.0,-99.9,30.12,South,172,3.0,5.0,-999,-99.99,,,-99.99,,2013-05-16 16:40:00,
2013-05-16 06:51:00,69.0,-99.9,30.12,SW,219,7.0,8.0,-999,-99.99,,,-99.99,,2013-05-16 16:51:00,
2013-05-16 07:01:00,69.0,-99.9,30.13,South,179,2.0,5.0,-999,-99.99,,,-99.99,,2013-05-16 17:01:00,
2013-05-16 07:11:00,70.0,-99.9,30.13,South,177,4.0,7.0,-999,-99.99,,,-99.99,,2013-05-16 17:11:00,
2013-05-16 07:20:00,70.0,-99.9,30.13,SSW,204,4.0,6.0,-999,-99.99,,,-99.99,,2013-05-16 17:20:00,
2013-05-16 07:31:00,70.0,-99.9,30.14,SSW,203,4.0,6.0,-999,-99.99,,,-99.99,,2013-05-16 17:31:00,
2013-05-16 07:40:00,70.0,-99.9,30.14,WSW,241,5.0,6.0,-999,-99.99,,,-99.99,,2013-05-16 17:40:00,
2013-05-16 07:50:00,71.0,-99.9,30.14,WSW,243,6.0,8.0,-999,-99.99,,,-99.99,,2013-05-16 17:50:00,
2013-05-16 08:00:00,72.0,-99.9,30.14,WSW,246,8.0,10.0,-999,-99.99,,,-99.99,,2013-05-16 18:00:00,
2013-05-16 08:10:00,73.0,-99.9,30.14,WSW,249,8.0,9.0,-999,-99.99,,,-99.99,,2013-05-16 18:10:00,
2013-05-16 08:20:00,74.0,-99.9,30.14,WSW,237,5.0,8.0,-999,-99.99,,,-99.99,,2013-05-16 18:20:00,
2013-05-16 08:30:00,-999.0,-99.9,30.14,WSW,238,6.0,7.0,-999,-99.99,,,-99.99,,2013-05-16 18:30:00,
2013-05-16 08:41:00,-999.0,-99.9,30.14,WSW,238,3.0,4.0,-999,-99.99,,,-99.99,,2013-05-16 18:41:00,
2013-05-16 08:51:00,-999.0,-99.9,30.14,WSW,247,3.0,3.0,-999,-99.99,,,-99.99,,2013-05-16 18:51:00,
2013-05-16 09:01:00,-999.0,-99.9,30.14,West,268,3.0,4.0,-999,-99.99,,,-99.99,,2013-05-16 19:01:00,
2013-05-16 09:11:00,77.0,-99.9,30.15,NNW,329,2.0,3.0,-999,-99.99,,,-99.99,,2013-05-16 19:11:00,
2013-05-16 09:20:00,77.0,-99.9,30.15,North,350,2.0,3.0,-999,-99.99,,,-99.99,,2013-05-16 19:20:00,
2013-05-16 09:30:00,79.0,-99.9,30.15,NNW,333,1.0,3.0,-999,-99.99,,,-99.99,,2013-05-16 19:30:00,
2013-05-16 09:40:00,78.0,-99.9,30.14,NNW,335,2.0,3.0,-999,-99.99,,,-99.99,,2013-05-16 19:40:00,
2013-05-16 09:51:00,-999.0,-99.9,30.14,North,6,6.0,6.0,-999,-99.99,,,-99.99,,2013-05-16 19:51:00,
2013-05-16 10:01:00,79.0,-99.9,30.14,NNE,24,6.0,7.0,-999,-99.99,,,-99.99,,2013-05-16 20:01:00,
2013-05-16 10:10:00,-999.0,-99.9,30.14,NE,41,7.0,9.0,-999,-99.99,,,-99.99,,2013-05-16 20:10:00,
2013-05-16 10:20:00,77.0,-99.9,30.15,NE,54,8.0,15.0,-999,-99.99,,,-99.99,,2013-05-16 20:20:00,
2013-05-16 10:30:00,76.0,-99.9,30.15,East,91,6.0,13.0,-999,-99.99,,,-99.99,,2013-05-16 20:30:00,
2013-05-16 10:41:00,-999.0,-99.9,30.15,SE,144,4.0,5.0,-999,-99.99,,,-99.99,,2013-05-16 20:41:00,
2013-05-16 10:51:00,79.0,-99.9,30.14,SE,130,1.0,3.0,-999,-99.99,,,-99.99,,2013-05-16 20:51:00,
2013-05-16 11:00:00,79.0,-99.9,30.14,WSW,246,2.0,4.0,-999,-99.99,,,-99.99,,2013-05-16 21:00:00,
2013-05-16 11:10:00,77.0,-99.9,30.14,NNW,338,5.0,6.0,-999,-99.99,,,-99.99,,2013-05-16 21:10:00,
2013-05-16 11:20:00,77.0,-99.9,30.14,NW,306,6.0,8.0,-999,-99.99,,,-99.99,,2013-05-16 21:20:00,
2013-05-16 11:29:00,77.0,-99.9,30.14,NW,318,8.0,9.0,-999,-99.99,,,-99.99,,2013-05-16 21:29:00,
2013-05-16 11:39:00,76.0,-99.9,30.13,NNW,340,6.0,8.0,-999,-99.99,,,-99.99,,2013-05-16 21:39:00,
2013-05-16 11:50:00,79.0,-99.9,30.13,NNE,31,6.0,10.0,-999,-99.99,,,-99.99,,2013-05-16 21:50:00,
2013-05-16 12:01:00,-999.0,-99.9,30.13,ENE,58,4.0,7.0,-999,-99.99,,,-99.99,,2013-05-16 22:01:00,
2013-05-16 12:08:00,78.0,-99.9,30.12,ENE,61,3.0,9.0,-999,-99.99,,,-99.99,,2013-05-16 22:08:00,
2013-05-16 12:21:00,80.0,-99.9,30.12,ESE,108,6.0,11.0,-999,-99.99,,,-99.99,,2013-05-16 22:21:00,
2013-05-16 12:31:00,80.0,-99.9,30.12,ENE,69,3.0,9.0,-999,-99.99,,,-99.99,,2013-05-16 22:31:00,
2013-05-16 12:40:00,74.0,-99.9,30.11,WSW,257,10.0,12.0,-999,-99.99,,,-99.99,,2013-05-16 22:40:00,
2013-05-16 12:51:00,74.0,-99.9,30.11,WSW,251,4.0,9.0,-999,-99.99,,,-99.99,,2013-05-16 22:51:00,
2013-05-16 13:01:00,74.0,-99.9,30.11,West,279,5.0,7.0,-999,-99.99,,,-99.99,,2013-05-16 23:01:00,
2013-05-16 13:07:00,75.0,-99.9,30.11,NW,319,0.0,2.0,-999,-99.99,,,-99.99,,2013-05-16 23:07:00,
2013-05-16 13:16:00,76.0,-99.9,30.10,WNW,283,3.0,4.0,-999,-99.99,,,-99.99,,2013-05-16 23:16:00,
2013-05-16 13:24:00,76.0,-99.9,30.10,SW,227,4.0,6.0,-999,-99.99,,,-99.99,,2013-05-16 23:24:00,
2013-05-16 13:35:00,76.0,-99.9,30.10,West,281,6.0,10.0,-999,-99.99,,,-99.99,,2013-05-16 23:35:00,
2013-05-16 13:45:00,76.0,-99.9,30.09,West,271,4.0,7.0,-999,-99.99,,,-99.99,,2013-05-16 23:45:00,
2013-05-16 13:54:00,77.0,-99.9,30.09,WNW,301,6.0,9.0,-999,-99.99,,,-99.99,,2013-05-16 23:54:00,
2013-05-16 14:03:00,80.0,-99.9,30.09,East,79,6.0,12.0,-999,-99.99,,,-99.99,,2013-05-17 00:03:00,
2013-05-16 14:13:00,81.0,-99.9,30.09,East,79,9.0,13.0,-999,-99.99,,,-99.99,,2013-05-17 00:13:00,
2013-05-16 14:22:00,83.0,-99.9,30.09,ESE,116,8.0,13.0,-999,-99.99,,,-99.99,,2013-05-17 00:22:00,
2013-05-16 14:33:00,83.0,-99.9,30.08,SE,129,9.0,13.0,-999,-99.99,,,-99.99,,2013-05-17 00:33:00,
2013-05-16 14:44:00,82.0,-99.9,30.08,East,100,9.0,14.0,-999,-99.99,,,-99.99,,2013-05-17 00:44:00,
2013-05-16 14:53:00,82.0,-99.9,30.07,ESE,113,7.0,13.0,-999,-99.99,,,-99.99,,2013-05-17 00:53:00,
2013-05-16 15:03:00,82.0,-99.9,30.07,ESE,107,9.0,13.0,-999,-99.99,,,-99.99,,2013-05-17 01:03:00,
2013-05-16 15:12:00,81.0,-99.9,30.07,East,83,7.0,11.0,-999,-99.99,,,-99.99,,2013-05-17 01:12:00,
2013-05-16 15:23:00,81.0,-99.9,30.07,East,87,4.0,11.0,-999,-99.99,,,-99.99,,2013-05-17 01:23:00,
2013-05-16 15:32:00,81.0,-99.9,30.06,ENE,77,5.0,11.0,-999,-99.99,,,-99.99,,2013-05-17 01:32:00,
2013-05-16 15:44:00,81.0,-99.9,30.06,East,93,6.0,9.0,-999,-99.99,,,-99.99,,2013-05-17 01:44:00,
2013-05-16 15:53:00,81.0,-99.9,30.06,East,88,6.0,11.0,-999,-99.99,,,-99.99,,2013-05-17 01:53:00,
2013-05-16 16:02:00,81.0,-99.9,30.06,East,85,6.0,12.0,-999,-99.99,,,-99.99,,2013-05-17 02:02:00,
2013-05-16 16:12:00,81.0,-99.9,30.06,East,94,5.0,10.0,-999,-99.99,,,-99.99,,2013-05-17 02:12:00,
2013-05-16 16:22:00,82.0,-99.9,30.06,ESE,116,7.0,10.0,-999,-99.99,,,-99.99,,2013-05-17 02:22:00,
2013-05-16 16:33:00,81.0,-99.9,30.06,ENE,68,4.0,10.0,-999,-99.99,,,-99.99,,2013-05-17 02:33:00,
2013-05-16 16:42:00,81.0,-99.9,30.06,East,87,9.0,13.0,-999,-99.99,,,-99.99,,2013-05-17 02:42:00,
2013-05-16 16:53:00,82.0,-99.9,30.06,ESE,122,9.0,11.0,-999,-99.99,,,-99.99,,2013-05-17 02:53:00,
2013-05-16 17:02:00,81.0,-99.9,30.06,ESE,105,2.0,8.0,-999,-99.99,,,-99.99,,2013-05-17 03:02:00,
2013-05-16 17:11:00,81.0,-99.9,30.06,East,86,5.0,8.0,-999,-99.99,,,-99.99,,2013-05-17 03:11:00,
2013-05-16 17:23:00,81.0,-99.9,30.06,SE,124,6.0,9.0,-999,-99.99,,,-99.99,,2013-05-17 03:23:00,
2013-05-16 17:34:00,81.0,-99.9,30.06,SE,142,3.0,9.0,-999,-99.99,,,-99.99,,2013-05-17 03:34:00,
2013-05-16 17:43:00,79.0,-99.9,30.06,South,174,1.0,2.0,-999,-99.99,,,-99.99,,2013-05-17 03:43:00,
2013-05-16 17:53:00,80.0,-99.9,30.07,ENE,57,4.0,6.0,-999,-99.99,,,-99.99,,2013-05-17 03:53:00,
2013-05-16 18:03:00,80.0,-99.9,30.07,NE,47,3.0,7.0,-999,-99.99,,,-99.99,,2013-05-17 04:03:00,
2013-05-16 18:13:00,80.0,-99.9,30.07,ENE,59,3.0,6.0,-999,-99.99,,,-99.99,,2013-05-17 04:13:00,
2013-05-16 18:23:00,79.0,-99.9,30.07,NE,50,3.0,6.0,-999,-99.99,,,-99.99,,2013-05-17 04:23:00,
2013-05-16 18:34:00,79.0,-99.9,30.08,ENE,70,2.0,5.0,-999,-99.99,,,-99.99,,2013-05-17 04:34:00,
2013-05-16 18:43:00,78.0,-99.9,30.08,NE,40,3.0,4.0,-999,-99.99,,,-99.99,,2013-05-17 04:43:00,
2013-05-16 18:53:00,78.0,-99.9,30.08,NE,51,2.0,5.0,-999,-99.99,,,-99.99,,2013-05-17 04:53:00,
2013-05-16 19:03:00,78.0,-99.9,30.09,ENE,76,3.0,5.0,-999,-99.99,,,-99.99,,2013-05-17 05:03:00,
2013-05-16 19:14:00,78.0,-99.9,30.09,ENE,76,2.0,4.0,-999,-99.99,,,-99.99,,2013-05-17 05:14:00,
2013-05-16 19:22:00,78.0,-99.9,30.09,East,95,3.0,4.0,-999,-99.99,,,-99.99,,2013-05-17 05:22:00,
2013-05-16 19:32:00,77.0,-99.9,30.09,ENE,77,2.0,4.0,-999,-99.99,,,-99.99,,2013-05-17 05:32:00,
2013-05-16 19:43:00,77.0,-99.9,30.09,ENE,77,2.0,4.0,-999,-99.99,,,-99.99,,2013-05-17 05:43:00,
2013-05-16 19:52:00,77.0,-99.9,30.10,East,101,0.0,2.0,-999,-99.99,,,-99.99,,2013-05-17 05:52:00,
2013-05-16 20:02:00,76.0,-99.9,30.10,ENE,60,2.0,4.0,-999,-99.99,,,-99.99,,2013-05-17 06:02:00,
2013-05-16 20:11:00,76.0,-99.9,30.10,East,90,2.0,3.0,-999,-99.99,,,-99.99,,2013-05-17 06:11:00,
2013-05-16 20:22:00,76.0,-99.9,30.10,ENE,74,1.0,3.0,-999,-99.99,,,-99.99,,2013-05-17 06:22:00,
2013-05-16 20:32:00,76.0,-99.9,30.11,ESE,115,3.0,6.0,-999,-99.99,,,-99.99,,2013-05-17 06:32:00,
2013-05-16 20:42:00,76.0,-99.9,30.11,East,98,3.0,5.0,-999,-99.99,,,-99.99,,2013-05-17 06:42:00,
2013-05-16 20:52:00,75.0,-99.9,30.11,East,96,2.0,6.0,-999,-99.99,,,-99.99,,2013-05-17 06:52:00,
2013-05-16 21:03:00,75.0,-99.9,30.11,East,100,2.0,4.0,-999,-99.99,,,-99.99,,2013-05-17 07:03:00,
2013-05-16 21:11:00,75.0,-99.9,30.11,ESE,109,3.0,4.0,-999,-99.99,,,-99.99,,2013-05-17 07:11:00,
2013-05-16 21:21:00,75.0,-99.9,30.11,ESE,106,2.0,4.0,-999,-99.99,,,-99.99,,2013-05-17 07:21:00,
2013-05-16 21:32:00,74.0,-99.9,30.12,SE,129,1.0,3.0,-999,-99.99,,,-99.99,,2013-05-17 07:32:00,
2013-05-16 21:43:00,74.0,-99.9,30.12,SSE,158,1.0,2.0,-999,-99.99,,,-99.99,,2013-05-17 07:43:00,
2013-05-16 21:53:00,74.0,-99.9,30.12,SE,131,1.0,2.0,-999,-99.99,,,-99.99,,2013-05-17 07:53:00,
2013-05-16 22:03:00,73.0,-99.9,30.12,South,191,2.0,3.0,-999,-99.99,,,-99.99,,2013-05-17 08:03:00,
2013-05-16 22:12:00,73.0,-99.9,30.13,SSW,204,1.0,3.0,-999,-99.99,,,-99.99,,2013-05-17 08:12:00,
2013-05-16 22:23:00,73.0,-99.9,30.13,SSW,194,2.0,4.0,-999,-99.99,,,-99.99,,2013-05-17 08:23:00,
2013-05-16 22:34:00,72.0,-99.9,30.13,SW,227,2.0,4.0,-999,-99.99,,,-99.99,,2013-05-17 08:34:00,
2013-05-16 22:43:00,72.0,-99.9,30.13,SSW,193,2.0,4.0,-999,-99.99,,,-99.99,,2013-05-17 08:43:00,
2013-05-16 22:52:00,72.0,-99.9,30.13,SW,226,3.0,5.0,-999,-99.99,,,-99.99,,2013-05-17 08:52:00,
2013-05-16 23:02:00,72.0,-99.9,30.13,SW,233,3.0,4.0,-999,-99.99,,,-99.99,,2013-05-17 09:02:00,
2013-05-16 23:12:00,72.0,-99.9,30.13,SW,218,3.0,4.0,-999,-99.99,,,-99.99,,2013-05-17 09:12:00,
2013-05-16 23:23:00,72.0,-99.9,30.13,South,182,4.0,9.0,-999,-99.99,,,-99.99,,2013-05-17 09:23:00,
2013-05-16 23:33:00,72.0,-99.9,30.13,South,189,4.0,6.0,-999,-99.99,,,-99.99,,2013-05-17 09:33:00,
2013-05-16 23:42:00,73.0,-99.9,30.12,SW,217,5.0,6.0,-999,-99.99,,,-99.99,,2013-05-17 09:42:00,
2013-05-16 23:53:00,73.0,-99.9,30.12,SW,222,6.0,7.0,-999,-99.99,,,-99.99,,2013-05-17 09:53:00,